createdAt,value
2023-04-08T00:01:02.764Z,70.23
2023-04-08T00:03:30.740Z,71.00
2023-04-08T00:05:58.756Z,71.97
2023-04-08T00:08:26.482Z,73.22
2023-04-08T00:10:54.296Z,73.47
2023-04-08T00:13:22.132Z,73.68
2023-04-08T00:15:49.895Z,73.60
2023-04-08T00:18:19.070Z,73.56
2023-04-08T00:20:46.889Z,74.24
2023-04-08T00:23:14.581Z,74.68
2023-04-08T00:25:42.442Z,73.97
2023-04-08T00:28:10.382Z,74.20
2023-04-08T00:30:38.301Z,74.78
2023-04-08T00:33:06.112Z,75.09
2023-04-08T00:35:35.383Z,74.71
2023-04-08T00:38:03.413Z,75.29
2023-04-08T00:40:31.147Z,74.96
2023-04-08T00:42:58.934Z,75.88
2023-04-08T00:45:27.206Z,78.00
2023-04-08T00:47:54.969Z,76.58
2023-04-08T00:50:22.788Z,76.85
2023-04-08T00:52:51.964Z,77.52
2023-04-08T00:55:19.796Z,78.63
2023-04-08T00:57:47.733Z,79.21
2023-04-08T01:00:16.692Z,79.30
2023-04-08T01:02:49.653Z,80.17
2023-04-08T01:05:26.780Z,80.80
2023-04-08T01:07:56.485Z,82.74
2023-04-08T01:10:28.452Z,82.96
2023-04-08T01:12:58.210Z,82.79
2023-04-08T01:15:27.511Z,82.94
2023-04-08T01:17:56.673Z,84.02
2023-04-08T01:20:26.028Z,85.92
2023-04-08T01:23:05.091Z,84.95
2023-04-08T01:25:33.988Z,86.14
2023-04-08T01:28:05.863Z,88.18
2023-04-08T01:30:34.893Z,85.18
2023-04-08T01:33:03.640Z,84.07
2023-04-08T01:35:32.166Z,85.58
2023-04-08T01:38:00.661Z,88.51
2023-04-08T01:40:28.560Z,91.01
2023-04-08T01:42:57.720Z,90.19
2023-04-08T01:45:27.762Z,90.23
2023-04-08T01:47:56.606Z,90.72
2023-04-08T01:50:25.127Z,93.74
2023-04-08T01:52:53.858Z,93.10
2023-04-08T01:55:22.215Z,93.66
2023-04-08T01:57:52.107Z,93.20
2023-04-08T02:00:22.305Z,92.92
2023-04-08T02:02:52.056Z,94.37
2023-04-08T02:05:20.129Z,94.19
2023-04-08T02:07:48.517Z,96.38
2023-04-08T02:10:16.800Z,96.42
2023-04-08T02:12:45.431Z,95.27
2023-04-08T02:15:14.067Z,95.90
2023-04-08T02:17:46.135Z,96.65
2023-04-08T02:20:20.104Z,96.70
2023-04-08T02:22:50.787Z,97.50
2023-04-08T02:25:24.578Z,98.31
2023-04-08T02:27:53.580Z,98.04
2023-04-08T02:30:21.501Z,98.78
2023-04-08T02:32:49.486Z,96.64
2023-04-08T02:35:19.336Z,98.07
2023-04-08T02:37:48.706Z,97.67
2023-04-08T02:40:26.955Z,97.33
2023-04-08T02:42:54.883Z,99.73
2023-04-08T02:45:23.096Z,96.90
2023-04-08T02:47:50.993Z,96.39
2023-04-08T02:50:20.070Z,99.31
2023-04-08T02:52:47.776Z,100.00
2023-04-08T02:55:15.421Z,100.00
2023-04-08T02:57:43.975Z,100.00
2023-04-08T03:00:13.073Z,100.00
2023-04-08T03:02:41.227Z,100.00
2023-04-08T03:05:10.183Z,100.00
2023-04-08T03:07:39.610Z,100.00
2023-04-08T03:10:08.829Z,100.00
2023-04-08T03:12:36.595Z,100.00
2023-04-08T03:15:04.528Z,100.00
2023-04-08T03:17:33.846Z,100.00
2023-04-08T03:20:01.901Z,100.00
2023-04-08T03:22:29.675Z,100.00
2023-04-08T03:24:58.765Z,100.00
2023-04-08T03:27:26.767Z,100.00
2023-04-08T03:29:54.541Z,100.00
2023-04-08T03:32:22.301Z,100.00
2023-04-08T03:34:51.335Z,100.00
2023-04-08T03:37:19.203Z,100.00
2023-04-08T03:39:47.183Z,100.00
2023-04-08T03:42:16.288Z,100.00
2023-04-08T03:44:44.072Z,100.00
2023-04-08T03:47:11.850Z,100.00
2023-04-08T03:49:39.625Z,100.00
2023-04-08T03:52:07.539Z,100.00
2023-04-08T03:54:35.252Z,100.00
2023-04-08T03:57:03.081Z,100.00
2023-04-08T03:59:33.900Z,100.00
2023-04-08T04:02:01.654Z,100.00
2023-04-08T04:04:29.504Z,100.00
2023-04-08T04:06:57.282Z,100.00
2023-04-08T04:09:24.974Z,100.00
2023-04-08T04:11:52.692Z,100.00
2023-04-08T04:14:20.414Z,100.00
2023-04-08T04:16:49.475Z,100.00
2023-04-08T04:19:17.822Z,100.00
2023-04-08T04:21:45.595Z,100.00
2023-04-08T04:24:13.527Z,100.00
2023-04-08T04:26:41.822Z,100.00
2023-04-08T04:29:09.639Z,100.00
2023-04-08T04:31:37.386Z,100.00
2023-04-08T04:34:06.768Z,100.00
2023-04-08T04:36:34.568Z,100.00
2023-04-08T04:39:02.321Z,100.00
2023-04-08T04:41:29.964Z,100.00
2023-04-08T04:43:57.688Z,100.00
2023-04-08T04:46:25.421Z,100.00
2023-04-08T04:48:53.311Z,100.00
2023-04-08T04:51:22.347Z,100.00
2023-04-08T04:53:50.581Z,100.00
2023-04-08T04:56:18.253Z,100.00
2023-04-08T04:58:46.013Z,100.00
2023-04-08T05:01:13.878Z,100.00
2023-04-08T05:03:41.748Z,100.00
2023-04-08T05:06:09.471Z,100.00
2023-04-08T05:08:38.522Z,100.00
2023-04-08T05:11:10.466Z,100.00
2023-04-08T05:13:38.188Z,100.00
2023-04-08T05:16:06.297Z,100.00
2023-04-08T05:18:34.049Z,100.00
2023-04-08T05:21:01.811Z,100.00
2023-04-08T05:23:29.588Z,100.00
2023-04-08T05:25:58.676Z,100.00
2023-04-08T05:28:26.390Z,100.00
2023-04-08T05:30:54.595Z,100.00
2023-04-08T05:33:22.491Z,100.00
2023-04-08T05:35:50.416Z,100.00
2023-04-08T05:38:18.201Z,100.00
2023-04-08T05:40:45.920Z,100.00
2023-04-08T05:43:15.020Z,100.00
2023-04-08T05:45:42.765Z,100.00
2023-04-08T05:48:10.520Z,100.00
2023-04-08T05:50:38.255Z,100.00
2023-04-08T05:53:06.081Z,100.00
2023-04-08T05:55:33.849Z,100.00
2023-04-08T05:58:01.606Z,100.00
2023-04-08T06:00:30.782Z,100.00
2023-04-08T06:02:58.742Z,100.00
2023-04-08T06:05:26.847Z,100.00
2023-04-08T06:07:54.540Z,100.00
2023-04-08T06:10:22.222Z,100.00
2023-04-08T06:12:49.924Z,100.00
2023-04-08T06:15:17.729Z,100.00
2023-04-08T06:17:46.853Z,100.00
2023-04-08T06:20:14.599Z,100.00
2023-04-08T06:22:42.313Z,100.00
2023-04-08T06:25:10.394Z,100.00
2023-04-08T06:27:38.085Z,100.00
2023-04-08T06:30:06.521Z,100.00
2023-04-08T06:32:34.271Z,100.00
2023-04-08T06:35:03.551Z,100.00
2023-04-08T06:37:31.297Z,100.00
2023-04-08T06:39:59.035Z,100.00
2023-04-08T06:42:27.289Z,100.00
2023-04-08T06:44:55.022Z,100.00
2023-04-08T06:47:22.754Z,100.00
2023-04-08T06:49:50.488Z,100.00
2023-04-08T06:52:19.621Z,100.00
2023-04-08T06:54:47.456Z,100.00
2023-04-08T06:58:19.019Z,100.00
2023-04-08T07:00:47.191Z,100.00
2023-04-08T07:03:14.962Z,100.00
2023-04-08T07:05:43.006Z,100.00
2023-04-08T07:08:10.672Z,100.00
2023-04-08T07:10:38.385Z,100.00
2023-04-08T07:13:06.083Z,100.00
2023-04-08T07:15:35.232Z,100.00
2023-04-08T07:18:04.701Z,100.00
2023-04-08T07:20:32.504Z,100.00
2023-04-08T07:23:00.359Z,100.00
2023-04-08T07:25:28.070Z,100.00
2023-04-08T07:27:56.321Z,100.00
2023-04-08T07:30:24.580Z,100.00
2023-04-08T07:32:56.249Z,100.00
2023-04-08T07:35:26.052Z,100.00
2023-04-08T07:37:55.017Z,100.00
2023-04-08T07:40:22.705Z,100.00
2023-04-08T07:42:50.447Z,100.00
2023-04-08T07:45:18.180Z,100.00
2023-04-08T07:47:46.120Z,100.00
2023-04-08T07:50:15.505Z,100.00
2023-04-08T07:52:43.172Z,100.00
2023-04-08T07:55:11.260Z,100.00
2023-04-08T07:57:39.086Z,100.00
2023-04-08T08:00:08.459Z,100.00
2023-04-08T08:02:36.165Z,99.20
2023-04-08T08:05:04.065Z,100.00
2023-04-08T08:07:33.114Z,100.00
2023-04-08T08:10:00.791Z,100.00
2023-04-08T08:12:28.448Z,100.00
2023-04-08T08:14:59.068Z,98.46
2023-04-08T08:17:30.038Z,98.38
2023-04-08T08:19:57.846Z,92.07
2023-04-08T08:22:25.565Z,91.79
2023-04-08T08:24:58.034Z,88.96
2023-04-08T08:27:25.913Z,93.32
2023-04-08T08:29:53.706Z,95.69
2023-04-08T08:32:21.415Z,94.29
2023-04-08T08:34:49.165Z,94.19
2023-04-08T08:37:16.870Z,97.35
2023-04-08T08:39:44.577Z,96.79
2023-04-08T08:42:22.301Z,97.80
2023-04-08T08:44:50.469Z,96.54
2023-04-08T08:47:18.891Z,96.11
2023-04-08T08:49:46.743Z,95.02
2023-04-08T08:52:17.765Z,91.62
2023-04-08T08:54:46.040Z,95.31
2023-04-08T08:57:21.316Z,99.16
2023-04-08T08:59:49.047Z,92.53
2023-04-08T09:02:28.053Z,93.45
2023-04-08T09:05:00.603Z,93.35
2023-04-08T09:07:29.255Z,88.99
2023-04-08T09:09:58.426Z,85.05
2023-04-08T09:12:28.452Z,87.74
2023-04-08T09:15:07.210Z,84.96
2023-04-08T09:17:36.072Z,81.88
2023-04-08T09:20:11.507Z,83.60
2023-04-08T09:22:59.248Z,85.75
2023-04-08T09:25:27.879Z,87.94
2023-04-08T09:27:57.046Z,90.37
2023-04-08T09:30:26.421Z,90.75
2023-04-08T09:32:56.078Z,89.48
2023-04-08T09:35:24.824Z,84.72
2023-04-08T09:37:52.890Z,84.83
2023-04-08T09:40:20.614Z,82.58
2023-04-08T09:42:51.186Z,84.56
2023-04-08T09:45:20.467Z,85.21
2023-04-08T09:47:58.156Z,82.68
2023-04-08T09:50:28.811Z,81.36
2023-04-08T09:53:02.296Z,82.15
2023-04-08T09:55:32.944Z,82.04
2023-04-08T09:58:04.184Z,85.26
2023-04-08T10:00:34.852Z,82.02
2023-04-08T10:03:08.471Z,76.38
2023-04-08T10:05:38.813Z,79.90
2023-04-08T10:08:07.319Z,85.35
2023-04-08T10:10:35.822Z,83.20
2023-04-08T10:13:04.021Z,77.79
2023-04-08T10:15:33.946Z,78.07
2023-04-08T10:18:33.938Z,88.06
2023-04-08T10:21:02.434Z,84.18
2023-04-08T10:23:54.784Z,89.26
2023-04-08T10:26:33.621Z,90.46
2023-04-08T10:29:32.810Z,90.40
2023-04-08T10:32:02.827Z,92.65
2023-04-08T10:34:30.777Z,93.25
2023-04-08T10:37:02.238Z,92.44
2023-04-08T10:39:29.988Z,92.00
2023-04-08T10:41:57.748Z,91.24
2023-04-08T10:44:26.726Z,89.28
2023-04-08T10:46:55.759Z,83.08
2023-04-08T10:49:33.821Z,78.18
2023-04-08T10:52:01.967Z,73.75
2023-04-08T10:54:29.737Z,75.30
2023-04-08T10:56:57.490Z,78.21
2023-04-08T10:59:32.866Z,78.42
2023-04-08T11:02:01.525Z,69.57
2023-04-08T11:04:30.911Z,73.03
2023-04-08T11:06:59.150Z,79.63
2023-04-08T11:09:27.495Z,73.58
2023-04-08T11:11:56.622Z,74.84
2023-04-08T11:14:25.093Z,71.30
2023-04-08T11:16:53.257Z,73.85
2023-04-08T11:19:21.495Z,71.54
2023-04-08T11:21:52.736Z,69.70
2023-04-08T11:24:22.347Z,75.06
2023-04-08T11:26:50.304Z,71.31
2023-04-08T11:29:18.162Z,72.61
2023-04-08T11:31:47.266Z,69.86
2023-04-08T11:34:23.418Z,73.93
2023-04-08T11:36:52.576Z,84.15
2023-04-08T11:39:24.097Z,78.04
2023-04-08T11:41:51.901Z,85.45
2023-04-08T11:44:19.716Z,81.10
2023-04-08T11:46:55.314Z,87.26
2023-04-08T11:49:23.127Z,88.26
2023-04-08T11:51:59.232Z,80.64
2023-04-08T11:54:27.615Z,77.32
2023-04-08T11:56:56.095Z,75.34
2023-04-08T11:59:23.789Z,76.79
2023-04-08T12:01:52.853Z,90.43
2023-04-08T12:04:20.777Z,87.89
2023-04-08T12:06:48.524Z,89.04
2023-04-08T12:09:17.630Z,88.96
2023-04-08T12:11:45.482Z,86.79
2023-04-08T12:14:13.272Z,80.15
2023-04-08T12:16:41.413Z,82.03
2023-04-08T12:19:09.108Z,84.92
2023-04-08T12:21:36.905Z,83.38
2023-04-08T12:24:04.687Z,78.92
2023-04-08T12:26:33.862Z,79.31
2023-04-08T12:29:01.636Z,80.44
2023-04-08T12:31:29.418Z,80.45
2023-04-08T12:33:57.120Z,82.66
2023-04-08T12:36:25.019Z,80.92
2023-04-08T12:38:52.979Z,74.71
2023-04-08T12:41:20.775Z,75.57
2023-04-08T12:43:49.756Z,74.63
2023-04-08T12:46:17.649Z,82.12
2023-04-08T12:51:15.109Z,78.65
2023-04-08T12:53:42.998Z,80.63
2023-04-08T12:56:10.944Z,75.28
2023-04-08T12:58:38.724Z,76.12
2023-04-08T13:01:08.014Z,82.04
2023-04-08T13:03:36.284Z,82.77
2023-04-08T13:06:04.301Z,82.84
2023-04-08T13:08:32.014Z,77.92
2023-04-08T13:10:59.712Z,79.87
2023-04-08T13:13:27.557Z,80.53
2023-04-08T13:15:55.278Z,77.57
2023-04-08T13:18:24.329Z,76.84
2023-04-08T13:20:52.102Z,82.05
2023-04-08T13:23:19.928Z,82.38
2023-04-08T13:25:47.645Z,80.13
2023-04-08T13:28:15.635Z,86.04
2023-04-08T13:30:43.522Z,89.71
2023-04-08T13:33:11.293Z,87.98
2023-04-08T13:35:40.631Z,89.18
2023-04-08T13:38:08.592Z,87.81
2023-04-08T13:40:36.326Z,91.82
2023-04-08T13:43:04.058Z,90.65
2023-04-08T13:45:31.980Z,90.00
2023-04-08T13:47:59.793Z,83.23
2023-04-08T13:50:28.040Z,84.18
2023-04-08T13:52:57.291Z,86.07
2023-04-08T13:55:25.034Z,85.04
2023-04-08T13:57:52.816Z,88.21
2023-04-08T14:00:20.887Z,86.78
2023-04-08T14:02:48.714Z,82.01
2023-04-08T14:05:16.672Z,93.85
2023-04-08T14:07:44.322Z,91.90
2023-04-08T14:10:14.600Z,87.05
2023-04-08T14:12:42.368Z,86.32
2023-04-08T14:15:11.041Z,90.06
2023-04-08T14:17:38.897Z,87.37
2023-04-08T14:20:08.082Z,86.22
2023-04-08T14:22:35.829Z,87.30
2023-04-08T14:25:03.669Z,87.78
2023-04-08T14:27:32.990Z,87.73
2023-04-08T14:30:01.867Z,92.85
2023-04-08T14:32:29.561Z,91.53
2023-04-08T14:34:57.727Z,92.05
2023-04-08T14:37:25.552Z,82.95
2023-04-08T14:39:53.308Z,83.57
2023-04-08T14:42:22.473Z,91.83
2023-04-08T14:44:51.766Z,91.81
2023-04-08T14:47:19.433Z,97.78
2023-04-08T14:49:47.926Z,93.31
2023-04-08T14:52:15.954Z,88.92
2023-04-08T14:54:45.145Z,93.41
2023-04-08T14:57:13.166Z,98.31
2023-04-08T14:59:40.896Z,92.01
2023-04-08T15:02:10.048Z,94.79
2023-04-08T15:04:37.814Z,96.42
2023-04-08T15:07:06.301Z,94.83
2023-04-08T15:09:34.095Z,98.32
2023-04-08T15:12:02.639Z,88.05
2023-04-08T15:14:30.353Z,87.19
2023-04-08T15:16:58.122Z,87.70
2023-04-08T15:19:27.196Z,88.41
2023-04-08T15:21:54.863Z,92.74
2023-04-08T15:24:22.830Z,91.69
2023-04-08T15:26:50.511Z,95.35
2023-04-08T15:29:18.171Z,94.88
2023-04-08T15:31:45.866Z,92.07
2023-04-08T15:34:13.595Z,89.92
2023-04-08T15:36:42.704Z,85.10
2023-04-08T15:39:10.793Z,87.43
2023-04-08T15:41:38.898Z,90.70
2023-04-08T15:44:06.602Z,86.84
2023-04-08T15:46:36.802Z,82.81
2023-04-08T15:49:05.269Z,85.19
2023-04-08T15:51:33.421Z,91.71
2023-04-08T15:54:02.811Z,89.86
2023-04-08T15:56:30.558Z,89.95
2023-04-08T15:58:58.432Z,88.98
2023-04-08T16:01:26.242Z,81.65
2023-04-08T16:03:54.056Z,84.00
2023-04-08T16:06:21.838Z,87.52
2023-04-08T16:08:50.360Z,86.07
2023-04-08T16:11:19.610Z,88.15
2023-04-08T16:13:47.301Z,87.57
2023-04-08T16:16:15.070Z,93.17
2023-04-08T16:18:46.008Z,93.60
2023-04-08T16:21:14.565Z,89.82
2023-04-08T16:23:42.264Z,85.17
2023-04-08T16:26:09.992Z,86.30
2023-04-08T16:28:39.907Z,82.64
2023-04-08T16:31:07.940Z,90.46
2023-04-08T16:33:35.923Z,89.51
2023-04-08T16:36:04.283Z,83.75
2023-04-08T16:38:33.078Z,85.63
2023-04-08T16:41:01.154Z,87.90
2023-04-08T16:43:29.401Z,83.78
2023-04-08T16:45:58.462Z,83.96
2023-04-08T16:48:26.249Z,86.97
2023-04-08T16:50:53.967Z,86.75
2023-04-08T16:53:21.650Z,96.98
2023-04-08T16:55:49.322Z,100.00
2023-04-08T16:58:17.120Z,96.81
2023-04-08T17:00:44.792Z,92.71
2023-04-08T17:03:13.859Z,93.01
2023-04-08T17:05:41.806Z,94.85
2023-04-08T17:08:09.558Z,99.07
2023-04-08T17:10:37.433Z,93.12
2023-04-08T17:13:05.659Z,91.34
2023-04-08T17:15:36.092Z,90.51
2023-04-08T17:18:03.858Z,86.36
2023-04-08T17:20:32.976Z,82.75
2023-04-08T17:23:00.719Z,80.90
2023-04-08T17:25:28.434Z,79.60
2023-04-08T17:27:56.732Z,84.16
2023-04-08T17:30:24.595Z,91.52
2023-04-08T17:32:52.766Z,91.44
2023-04-08T17:35:20.616Z,91.54
2023-04-08T17:37:50.269Z,96.29
2023-04-08T17:40:18.431Z,96.64
2023-04-08T17:42:46.654Z,97.46
2023-04-08T17:45:14.588Z,98.53
2023-04-08T17:47:43.290Z,97.99
2023-04-08T17:50:11.919Z,99.64
2023-04-08T17:52:39.777Z,96.08
2023-04-08T17:55:10.128Z,99.15
2023-04-08T17:57:38.975Z,100.00
2023-04-08T18:00:08.156Z,100.00
2023-04-08T18:02:36.961Z,99.92
2023-04-08T18:05:06.547Z,96.27
2023-04-08T18:07:34.426Z,100.00
2023-04-08T18:10:02.411Z,96.58
2023-04-08T18:12:31.783Z,97.75
2023-04-08T18:14:59.984Z,96.39
2023-04-08T18:17:27.695Z,94.17
2023-04-08T18:19:55.374Z,93.58
2023-04-08T18:22:23.035Z,91.37
2023-04-08T18:24:50.712Z,90.58
2023-04-08T18:27:18.399Z,93.58
2023-04-08T18:29:47.420Z,92.17
2023-04-08T18:32:15.152Z,89.78
2023-04-08T18:34:42.784Z,92.09
2023-04-08T18:37:10.998Z,98.71
2023-04-08T18:39:41.032Z,100.00
2023-04-08T18:42:08.765Z,100.00
2023-04-08T18:44:36.537Z,100.00
2023-04-08T18:47:05.749Z,100.00
2023-04-08T18:49:34.115Z,97.01
2023-04-08T18:52:03.415Z,95.57
2023-04-08T18:54:31.547Z,93.79
2023-04-08T18:56:59.479Z,93.77
2023-04-08T18:59:28.765Z,100.00
2023-04-08T19:01:57.011Z,100.00
2023-04-08T19:04:26.369Z,96.61
2023-04-08T19:06:54.185Z,100.00
2023-04-08T19:09:21.886Z,100.00
2023-04-08T19:11:49.600Z,100.00
2023-04-08T19:14:17.643Z,100.00
2023-04-08T19:16:46.022Z,100.00
2023-04-08T19:19:13.734Z,100.00
2023-04-08T19:21:42.840Z,100.00
2023-04-08T19:24:10.566Z,100.00
2023-04-08T19:26:38.327Z,100.00
2023-04-08T19:29:06.088Z,100.00
2023-04-08T19:31:33.764Z,100.00
2023-04-08T19:34:01.456Z,100.00
2023-04-08T19:36:29.231Z,100.00
2023-04-08T19:38:58.282Z,100.00
2023-04-08T19:41:26.242Z,100.00
2023-04-08T19:43:54.223Z,99.69
2023-04-08T19:46:22.098Z,98.39
2023-04-08T19:48:49.820Z,98.95
2023-04-08T19:51:20.269Z,100.00
2023-04-08T19:53:48.024Z,100.00
2023-04-08T19:56:17.237Z,100.00
2023-04-08T19:58:44.920Z,100.00
2023-04-08T20:01:14.145Z,100.00
2023-04-08T20:03:42.116Z,100.00
2023-04-08T20:06:10.029Z,99.55
2023-04-08T20:08:37.714Z,96.69
2023-04-08T20:11:05.375Z,94.92
2023-04-08T20:13:34.440Z,94.44
2023-04-08T20:16:02.695Z,91.93
2023-04-08T20:18:30.523Z,92.74
2023-04-08T20:20:59.550Z,94.53
2023-04-08T20:23:28.516Z,95.09
2023-04-08T20:25:56.763Z,95.48
2023-04-08T20:28:25.643Z,96.09
2023-04-08T20:30:54.693Z,99.92
2023-04-08T20:33:22.423Z,96.03
2023-04-08T20:35:53.087Z,94.05
2023-04-08T20:38:20.840Z,92.53
2023-04-08T20:40:48.853Z,93.29
2023-04-08T20:43:16.798Z,96.05
2023-04-08T20:45:44.466Z,95.09
2023-04-08T20:48:13.537Z,94.40
2023-04-08T20:50:41.484Z,92.65
2023-04-08T20:53:10.255Z,91.32
2023-04-08T20:55:37.987Z,91.89
2023-04-08T20:58:07.508Z,93.13
2023-04-08T21:00:35.357Z,95.01
2023-04-08T21:03:03.321Z,93.37
2023-04-08T21:05:32.565Z,93.71
2023-04-08T21:08:00.268Z,94.50
2023-04-08T21:10:28.099Z,92.90
2023-04-08T21:12:55.798Z,92.55
2023-04-08T21:15:23.493Z,92.16
2023-04-08T21:17:51.192Z,90.17
2023-04-08T21:20:19.150Z,97.68
2023-04-08T21:22:48.236Z,95.46
2023-04-08T21:25:16.028Z,94.38
2023-04-08T21:27:43.766Z,94.15
2023-04-08T21:30:12.068Z,95.47
2023-04-08T21:32:39.922Z,93.87
2023-04-08T21:35:08.127Z,92.28
2023-04-08T21:37:35.837Z,93.36
2023-04-08T21:40:05.203Z,93.38
2023-04-08T21:42:32.991Z,92.71
2023-04-08T21:45:00.835Z,93.18
2023-04-08T21:47:28.615Z,96.84
2023-04-08T21:49:56.853Z,97.63
2023-04-08T21:52:26.439Z,100.00
2023-04-08T21:54:54.219Z,100.00
2023-04-08T21:57:23.306Z,100.00
2023-04-08T21:59:51.012Z,100.00
2023-04-08T22:02:18.843Z,100.00
2023-04-08T22:04:46.601Z,100.00
2023-04-08T22:07:14.426Z,100.00
2023-04-08T22:09:42.147Z,100.00
2023-04-08T22:12:10.710Z,100.00
2023-04-08T22:14:39.858Z,100.00
2023-04-08T22:17:07.562Z,100.00
2023-04-08T22:19:35.571Z,100.00
2023-04-08T22:22:03.243Z,100.00
2023-04-08T22:24:30.921Z,100.00
2023-04-08T22:26:58.768Z,100.00
2023-04-08T22:29:26.476Z,100.00
2023-04-08T22:31:55.567Z,100.00
2023-04-08T22:34:23.311Z,100.00
2023-04-08T22:36:51.031Z,100.00
2023-04-08T22:39:18.734Z,100.00
2023-04-08T22:41:46.822Z,100.00
2023-04-08T22:44:14.599Z,100.00
2023-04-08T22:46:42.348Z,100.00
2023-04-08T22:49:11.459Z,100.00
2023-04-08T22:51:39.378Z,100.00
2023-04-08T22:54:07.148Z,100.00
2023-04-08T22:56:34.879Z,100.00
2023-04-08T22:59:02.639Z,100.00
2023-04-08T23:01:30.521Z,100.00
2023-04-08T23:03:58.275Z,100.00
2023-04-08T23:06:28.901Z,100.00
2023-04-08T23:08:56.543Z,100.00
2023-04-08T23:11:24.260Z,100.00
2023-04-08T23:13:51.932Z,100.00
2023-04-08T23:16:19.717Z,100.00
2023-04-08T23:18:47.512Z,100.00
2023-04-08T23:21:15.503Z,100.00
2023-04-08T23:23:44.585Z,100.00
2023-04-08T23:26:17.851Z,100.00
2023-04-08T23:28:45.574Z,100.00
2023-04-08T23:31:13.399Z,100.00
2023-04-08T23:33:41.169Z,100.00
2023-04-08T23:36:09.249Z,100.00
2023-04-08T23:38:37.974Z,100.00
2023-04-08T23:41:08.534Z,100.00
2023-04-08T23:43:36.403Z,100.00
2023-04-08T23:46:04.225Z,100.00
2023-04-08T23:48:31.928Z,100.00
2023-04-08T23:50:59.717Z,100.00
2023-04-08T23:53:27.399Z,100.00
2023-04-08T23:55:55.152Z,100.00
2023-04-08T23:58:24.259Z,99.96
